Weather at Barry's Bay / Madawaska Valley Airpark

Public forecast

Using degrees Celsius for public forecast. Weather courtesy of forecast.io.

Closest aviation weather report (METAR) to Barry's Bay / Madawaska Valley Airpark

Closest report is Petawawa Airport, 30.1 nm (55.8 km) NNE.

2024/05/28 23:00 (retrieved 1 hour ago)

CYWA 282300Z 32007KT 12SM BKN050 OVC210 18/11 A2979 RMK SC5CI3 DENSITY ALT 1153FT SLP089

Closest aviation forecast (TAF) to Barry's Bay / Madawaska Valley Airpark

Closest forecast is Muskoka Airport, 77.1 nm (142.9 km) WSW.

2024/05/28 22:39 Ammendment (retrieved 1 hour ago)

TAF AMD TAF AMD CYQA 282238Z 2822/2902 29010G20KT P6SM FEW020 BKN040 TEMPO 2822/2824 2SM TSRA BR OVC020CB FM290000 32008KT P6SM SCT020 BKN040 TEMPO 2900/2902 BKN020 OVC040 RMK FCST BASED ON AUTO OBS NXT FCST BY 291200Z